sensor_id;sensor_type;location;lat;lon;timestamp;P1;durP1;ratioP1;P2;durP2;ratioP2
52888;SDS011;41413;52.770;6.892;2023-06-14T00:00:39;4.75;;;4.65;;
52888;SDS011;41413;52.770;6.892;2023-06-14T00:03:09;5.43;;;5.22;;
52888;SDS011;41413;52.770;6.892;2023-06-14T00:05:38;4.55;;;4.45;;
52888;SDS011;41413;52.770;6.892;2023-06-14T00:08:09;4.80;;;4.70;;
52888;SDS011;41413;52.770;6.892;2023-06-14T00:10:36;5.63;;;5.43;;
52888;SDS011;41413;52.770;6.892;2023-06-14T00:13:04;5.68;;;5.47;;
52888;SDS011;41413;52.770;6.892;2023-06-14T00:15:31;5.43;;;5.25;;
52888;SDS011;41413;52.770;6.892;2023-06-14T00:17:58;4.75;;;4.65;;
52888;SDS011;41413;52.770;6.892;2023-06-14T00:20:27;6.13;;;5.93;;
52888;SDS011;41413;52.770;6.892;2023-06-14T00:22:55;5.53;;;5.32;;
52888;SDS011;41413;52.770;6.892;2023-06-14T00:25:23;5.43;;;5.22;;
52888;SDS011;41413;52.770;6.892;2023-06-14T00:27:55;5.05;;;4.93;;
52888;SDS011;41413;52.770;6.892;2023-06-14T00:30:23;5.07;;;4.97;;
52888;SDS011;41413;52.770;6.892;2023-06-14T00:32:50;4.45;;;4.35;;
52888;SDS011;41413;52.770;6.892;2023-06-14T00:35:18;5.53;;;5.35;;
52888;SDS011;41413;52.770;6.892;2023-06-14T00:37:45;4.88;;;4.78;;
52888;SDS011;41413;52.770;6.892;2023-06-14T00:40:11;4.63;;;4.53;;
52888;SDS011;41413;52.770;6.892;2023-06-14T00:42:39;5.35;;;5.18;;
52888;SDS011;41413;52.770;6.892;2023-06-14T00:45:06;4.70;;;4.60;;
52888;SDS011;41413;52.770;6.892;2023-06-14T00:47:33;4.50;;;4.40;;
52888;SDS011;41413;52.770;6.892;2023-06-14T00:50:01;5.43;;;5.22;;
52888;SDS011;41413;52.770;6.892;2023-06-14T00:52:28;5.18;;;5.05;;
52888;SDS011;41413;52.770;6.892;2023-06-14T00:54:55;4.53;;;4.43;;
52888;SDS011;41413;52.770;6.892;2023-06-14T00:57:22;5.93;;;5.72;;
52888;SDS011;41413;52.770;6.892;2023-06-14T00:59:50;5.43;;;5.25;;
52888;SDS011;41413;52.770;6.892;2023-06-14T01:02:17;5.78;;;5.57;;
52888;SDS011;41413;52.770;6.892;2023-06-14T01:04:45;4.50;;;4.40;;
52888;SDS011;41413;52.770;6.892;2023-06-14T01:15:15;5.60;;;5.40;;
52888;SDS011;41413;52.770;6.892;2023-06-14T01:17:43;5.32;;;5.15;;
52888;SDS011;41413;52.770;6.892;2023-06-14T01:20:12;5.97;;;5.78;;
52888;SDS011;41413;52.770;6.892;2023-06-14T01:22:49;6.13;;;5.93;;
52888;SDS011;41413;52.770;6.892;2023-06-14T01:25:18;5.85;;;5.65;;
52888;SDS011;41413;52.770;6.892;2023-06-14T01:28:02;4.82;;;4.72;;
52888;SDS011;41413;52.770;6.892;2023-06-14T01:30:37;4.93;;;4.83;;
52888;SDS011;41413;52.770;6.892;2023-06-14T01:33:08;5.65;;;5.45;;
52888;SDS011;41413;52.770;6.892;2023-06-14T01:35:36;5.82;;;5.63;;
52888;SDS011;41413;52.770;6.892;2023-06-14T01:38:03;4.90;;;4.80;;
52888;SDS011;41413;52.770;6.892;2023-06-14T01:40:31;5.88;;;5.68;;
52888;SDS011;41413;52.770;6.892;2023-06-14T01:43:00;5.30;;;5.15;;
52888;SDS011;41413;52.770;6.892;2023-06-14T01:45:29;5.15;;;5.00;;
52888;SDS011;41413;52.770;6.892;2023-06-14T01:47:56;5.90;;;5.70;;
52888;SDS011;41413;52.770;6.892;2023-06-14T01:50:23;4.97;;;4.88;;
52888;SDS011;41413;52.770;6.892;2023-06-14T01:52:53;4.93;;;4.82;;
52888;SDS011;41413;52.770;6.892;2023-06-14T01:55:20;4.57;;;4.47;;
52888;SDS011;41413;52.770;6.892;2023-06-14T01:57:48;6.13;;;5.93;;
52888;SDS011;41413;52.770;6.892;2023-06-14T02:00:15;5.38;;;5.20;;
52888;SDS011;41413;52.770;6.892;2023-06-14T02:02:44;6.07;;;5.88;;
52888;SDS011;41413;52.770;6.892;2023-06-14T02:05:12;5.22;;;5.07;;
52888;SDS011;41413;52.770;6.892;2023-06-14T02:07:39;4.63;;;4.53;;
52888;SDS011;41413;52.770;6.892;2023-06-14T02:10:05;5.57;;;5.38;;
52888;SDS011;41413;52.770;6.892;2023-06-14T02:12:33;5.65;;;5.45;;
52888;SDS011;41413;52.770;6.892;2023-06-14T02:14:59;5.57;;;5.38;;
52888;SDS011;41413;52.770;6.892;2023-06-14T02:17:26;5.80;;;5.60;;
52888;SDS011;41413;52.770;6.892;2023-06-14T02:19:53;5.53;;;5.35;;
52888;SDS011;41413;52.770;6.892;2023-06-14T02:22:20;5.13;;;5.03;;
52888;SDS011;41413;52.770;6.892;2023-06-14T02:24:48;4.95;;;4.85;;
52888;SDS011;41413;52.770;6.892;2023-06-14T02:27:24;5.68;;;5.47;;
52888;SDS011;41413;52.770;6.892;2023-06-14T02:29:51;5.88;;;5.68;;
52888;SDS011;41413;52.770;6.892;2023-06-14T02:32:17;5.40;;;5.22;;
52888;SDS011;41413;52.770;6.892;2023-06-14T02:34:44;5.53;;;5.32;;
52888;SDS011;41413;52.770;6.892;2023-06-14T02:37:16;6.38;;;6.18;;
52888;SDS011;41413;52.770;6.892;2023-06-14T02:39:42;4.97;;;4.88;;
52888;SDS011;41413;52.770;6.892;2023-06-14T02:42:09;6.15;;;5.95;;
52888;SDS011;41413;52.770;6.892;2023-06-14T02:44:36;5.18;;;5.05;;
52888;SDS011;41413;52.770;6.892;2023-06-14T02:47:03;4.60;;;4.50;;
52888;SDS011;41413;52.770;6.892;2023-06-14T02:49:31;5.65;;;5.45;;
52888;SDS011;41413;52.770;6.892;2023-06-14T02:51:58;5.45;;;5.25;;
52888;SDS011;41413;52.770;6.892;2023-06-14T02:54:24;5.97;;;5.78;;
52888;SDS011;41413;52.770;6.892;2023-06-14T02:56:51;6.32;;;6.13;;
52888;SDS011;41413;52.770;6.892;2023-06-14T02:59:18;4.63;;;4.53;;
52888;SDS011;41413;52.770;6.892;2023-06-14T03:01:47;5.07;;;4.97;;
52888;SDS011;41413;52.770;6.892;2023-06-14T03:04:14;5.30;;;5.15;;
52888;SDS011;41413;52.770;6.892;2023-06-14T03:06:41;5.90;;;5.70;;
52888;SDS011;41413;52.770;6.892;2023-06-14T03:09:10;6.10;;;5.90;;
52888;SDS011;41413;52.770;6.892;2023-06-14T03:11:37;5.15;;;5.05;;
52888;SDS011;41413;52.770;6.892;2023-06-14T03:14:04;5.38;;;5.20;;
52888;SDS011;41413;52.770;6.892;2023-06-14T03:16:33;6.10;;;5.90;;
52888;SDS011;41413;52.770;6.892;2023-06-14T03:19:00;4.90;;;4.80;;
52888;SDS011;41413;52.770;6.892;2023-06-14T03:21:26;6.18;;;5.97;;
52888;SDS011;41413;52.770;6.892;2023-06-14T03:23:54;5.28;;;5.13;;
52888;SDS011;41413;52.770;6.892;2023-06-14T03:26:21;5.25;;;5.10;;
52888;SDS011;41413;52.770;6.892;2023-06-14T03:28:48;5.40;;;5.22;;
52888;SDS011;41413;52.770;6.892;2023-06-14T03:31:16;5.95;;;5.75;;
52888;SDS011;41413;52.770;6.892;2023-06-14T03:33:43;5.82;;;5.63;;
52888;SDS011;41413;52.770;6.892;2023-06-14T03:36:10;4.85;;;4.75;;
52888;SDS011;41413;52.770;6.892;2023-06-14T03:38:37;5.70;;;5.50;;
52888;SDS011;41413;52.770;6.892;2023-06-14T03:41:03;5.47;;;5.28;;
52888;SDS011;41413;52.770;6.892;2023-06-14T03:43:30;5.38;;;5.20;;
52888;SDS011;41413;52.770;6.892;2023-06-14T03:45:57;6.10;;;5.90;;
52888;SDS011;41413;52.770;6.892;2023-06-14T03:48:24;6.03;;;5.82;;
52888;SDS011;41413;52.770;6.892;2023-06-14T03:50:51;6.00;;;5.80;;
52888;SDS011;41413;52.770;6.892;2023-06-14T03:53:18;5.20;;;5.05;;
52888;SDS011;41413;52.770;6.892;2023-06-14T03:55:46;5.60;;;5.40;;
52888;SDS011;41413;52.770;6.892;2023-06-14T03:58:17;5.57;;;5.38;;
52888;SDS011;41413;52.770;6.892;2023-06-14T04:00:44;5.47;;;5.30;;
52888;SDS011;41413;52.770;6.892;2023-06-14T04:03:12;5.20;;;5.03;;
52888;SDS011;41413;52.770;6.892;2023-06-14T04:05:39;6.07;;;5.88;;
52888;SDS011;41413;52.770;6.892;2023-06-14T04:08:08;5.78;;;5.57;;
52888;SDS011;41413;52.770;6.892;2023-06-14T04:10:36;5.22;;;5.07;;
52888;SDS011;41413;52.770;6.892;2023-06-14T04:13:03;5.25;;;5.10;;
52888;SDS011;41413;52.770;6.892;2023-06-14T04:15:30;5.20;;;5.07;;
52888;SDS011;41413;52.770;6.892;2023-06-14T04:17:57;6.05;;;5.85;;
52888;SDS011;41413;52.770;6.892;2023-06-14T04:20:24;6.32;;;6.13;;
52888;SDS011;41413;52.770;6.892;2023-06-14T04:22:51;5.40;;;5.20;;
52888;SDS011;41413;52.770;6.892;2023-06-14T04:25:18;5.22;;;5.07;;
52888;SDS011;41413;52.770;6.892;2023-06-14T04:27:51;5.50;;;5.30;;
52888;SDS011;41413;52.770;6.892;2023-06-14T04:30:18;5.47;;;5.28;;
52888;SDS011;41413;52.770;6.892;2023-06-14T04:32:45;4.95;;;4.85;;
52888;SDS011;41413;52.770;6.892;2023-06-14T04:35:12;5.80;;;5.60;;
52888;SDS011;41413;52.770;6.892;2023-06-14T04:37:39;5.63;;;5.43;;
52888;SDS011;41413;52.770;6.892;2023-06-14T04:40:09;5.93;;;5.72;;
52888;SDS011;41413;52.770;6.892;2023-06-14T04:42:38;5.15;;;5.05;;
52888;SDS011;41413;52.770;6.892;2023-06-14T04:45:07;5.47;;;5.28;;
52888;SDS011;41413;52.770;6.892;2023-06-14T04:47:35;5.43;;;5.28;;
52888;SDS011;41413;52.770;6.892;2023-06-14T04:50:03;5.80;;;5.60;;
52888;SDS011;41413;52.770;6.892;2023-06-14T04:52:31;5.68;;;5.47;;
52888;SDS011;41413;52.770;6.892;2023-06-14T04:54:57;5.97;;;5.78;;
52888;SDS011;41413;52.770;6.892;2023-06-14T04:57:25;5.57;;;5.38;;
52888;SDS011;41413;52.770;6.892;2023-06-14T04:59:52;5.25;;;5.07;;
52888;SDS011;41413;52.770;6.892;2023-06-14T05:02:22;4.70;;;4.60;;
52888;SDS011;41413;52.770;6.892;2023-06-14T05:04:50;4.93;;;4.82;;
52888;SDS011;41413;52.770;6.892;2023-06-14T05:07:17;5.13;;;5.00;;
52888;SDS011;41413;52.770;6.892;2023-06-14T05:09:44;5.30;;;5.10;;
52888;SDS011;41413;52.770;6.892;2023-06-14T05:12:12;5.35;;;5.18;;
52888;SDS011;41413;52.770;6.892;2023-06-14T05:14:38;5.88;;;5.68;;
52888;SDS011;41413;52.770;6.892;2023-06-14T05:17:05;5.68;;;5.47;;
52888;SDS011;41413;52.770;6.892;2023-06-14T05:19:32;5.43;;;5.28;;
52888;SDS011;41413;52.770;6.892;2023-06-14T05:21:59;5.43;;;5.22;;
52888;SDS011;41413;52.770;6.892;2023-06-14T05:24:26;5.65;;;5.45;;
52888;SDS011;41413;52.770;6.892;2023-06-14T05:26:55;4.78;;;4.68;;
52888;SDS011;41413;52.770;6.892;2023-06-14T05:29:22;5.35;;;5.15;;
52888;SDS011;41413;52.770;6.892;2023-06-14T05:31:49;5.43;;;5.22;;
52888;SDS011;41413;52.770;6.892;2023-06-14T05:34:16;5.63;;;5.43;;
52888;SDS011;41413;52.770;6.892;2023-06-14T05:36:43;5.63;;;5.43;;
52888;SDS011;41413;52.770;6.892;2023-06-14T05:39:09;5.32;;;5.18;;
52888;SDS011;41413;52.770;6.892;2023-06-14T05:41:36;5.05;;;4.93;;
52888;SDS011;41413;52.770;6.892;2023-06-14T05:44:03;5.43;;;5.22;;
52888;SDS011;41413;52.770;6.892;2023-06-14T05:46:30;5.25;;;5.10;;
52888;SDS011;41413;52.770;6.892;2023-06-14T05:48:57;4.50;;;4.40;;
52888;SDS011;41413;52.770;6.892;2023-06-14T05:51:24;4.55;;;4.45;;
52888;SDS011;41413;52.770;6.892;2023-06-14T05:53:53;4.88;;;4.78;;
52888;SDS011;41413;52.770;6.892;2023-06-14T05:56:20;5.15;;;5.03;;
52888;SDS011;41413;52.770;6.892;2023-06-14T05:58:47;4.60;;;4.50;;
52888;SDS011;41413;52.770;6.892;2023-06-14T06:01:14;5.82;;;5.63;;
52888;SDS011;41413;52.770;6.892;2023-06-14T06:03:41;5.55;;;5.35;;
52888;SDS011;41413;52.770;6.892;2023-06-14T06:06:12;5.50;;;5.30;;
52888;SDS011;41413;52.770;6.892;2023-06-14T06:08:39;5.18;;;5.05;;
52888;SDS011;41413;52.770;6.892;2023-06-14T06:11:06;4.78;;;4.68;;
52888;SDS011;41413;52.770;6.892;2023-06-14T06:13:33;4.72;;;4.63;;
52888;SDS011;41413;52.770;6.892;2023-06-14T06:16:02;5.05;;;4.95;;
52888;SDS011;41413;52.770;6.892;2023-06-14T06:18:29;5.32;;;5.18;;
52888;SDS011;41413;52.770;6.892;2023-06-14T06:20:56;5.18;;;5.03;;
52888;SDS011;41413;52.770;6.892;2023-06-14T06:23:23;4.53;;;4.43;;
52888;SDS011;41413;52.770;6.892;2023-06-14T06:25:50;5.57;;;5.38;;
52888;SDS011;41413;52.770;6.892;2023-06-14T06:28:17;5.68;;;5.47;;
52888;SDS011;41413;52.770;6.892;2023-06-14T06:30:44;5.40;;;5.22;;
52888;SDS011;41413;52.770;6.892;2023-06-14T06:33:11;5.28;;;5.13;;
52888;SDS011;41413;52.770;6.892;2023-06-14T06:35:39;5.47;;;5.28;;
52888;SDS011;41413;52.770;6.892;2023-06-14T06:38:06;4.00;;;3.90;;
52888;SDS011;41413;52.770;6.892;2023-06-14T06:40:33;5.32;;;5.18;;
52888;SDS011;41413;52.770;6.892;2023-06-14T06:43:00;5.30;;;5.13;;
52888;SDS011;41413;52.770;6.892;2023-06-14T06:45:28;4.93;;;4.82;;
52888;SDS011;41413;52.770;6.892;2023-06-14T06:47:54;5.30;;;5.15;;
52888;SDS011;41413;52.770;6.892;2023-06-14T06:50:22;4.32;;;4.22;;
52888;SDS011;41413;52.770;6.892;2023-06-14T06:52:49;5.57;;;5.38;;
52888;SDS011;41413;52.770;6.892;2023-06-14T06:55:17;4.72;;;4.63;;
52888;SDS011;41413;52.770;6.892;2023-06-14T06:57:44;4.78;;;4.68;;
52888;SDS011;41413;52.770;6.892;2023-06-14T07:00:11;4.82;;;4.72;;
52888;SDS011;41413;52.770;6.892;2023-06-14T07:02:39;4.40;;;4.30;;
52888;SDS011;41413;52.770;6.892;2023-06-14T07:05:06;4.28;;;4.18;;
52888;SDS011;41413;52.770;6.892;2023-06-14T07:07:34;4.93;;;4.82;;
52888;SDS011;41413;52.770;6.892;2023-06-14T07:10:04;5.72;;;5.53;;
52888;SDS011;41413;52.770;6.892;2023-06-14T07:12:31;4.65;;;4.55;;
52888;SDS011;41413;52.770;6.892;2023-06-14T07:15:00;5.18;;;5.07;;
52888;SDS011;41413;52.770;6.892;2023-06-14T07:17:27;4.53;;;4.43;;
52888;SDS011;41413;52.770;6.892;2023-06-14T07:19:54;5.03;;;4.93;;
52888;SDS011;41413;52.770;6.892;2023-06-14T07:22:20;4.70;;;4.60;;
52888;SDS011;41413;52.770;6.892;2023-06-14T07:24:47;4.57;;;4.47;;
52888;SDS011;41413;52.770;6.892;2023-06-14T07:27:14;4.18;;;4.07;;
52888;SDS011;41413;52.770;6.892;2023-06-14T07:29:41;4.20;;;4.10;;
52888;SDS011;41413;52.770;6.892;2023-06-14T07:32:07;5.07;;;4.95;;
52888;SDS011;41413;52.770;6.892;2023-06-14T07:34:34;3.95;;;3.85;;
52888;SDS011;41413;52.770;6.892;2023-06-14T07:37:01;4.88;;;4.78;;
52888;SDS011;41413;52.770;6.892;2023-06-14T07:39:28;4.60;;;4.50;;
52888;SDS011;41413;52.770;6.892;2023-06-14T07:41:56;3.70;;;3.60;;
52888;SDS011;41413;52.770;6.892;2023-06-14T07:44:22;6.13;;;5.93;;
52888;SDS011;41413;52.770;6.892;2023-06-14T07:46:49;5.53;;;5.35;;
52888;SDS011;41413;52.770;6.892;2023-06-14T07:49:16;5.00;;;4.90;;
52888;SDS011;41413;52.770;6.892;2023-06-14T07:51:43;5.30;;;5.13;;
52888;SDS011;41413;52.770;6.892;2023-06-14T07:54:12;4.63;;;4.53;;
52888;SDS011;41413;52.770;6.892;2023-06-14T07:56:38;4.93;;;4.82;;
52888;SDS011;41413;52.770;6.892;2023-06-14T07:59:08;4.90;;;4.80;;
52888;SDS011;41413;52.770;6.892;2023-06-14T08:01:36;4.18;;;4.07;;
52888;SDS011;41413;52.770;6.892;2023-06-14T08:04:04;4.88;;;4.78;;
52888;SDS011;41413;52.770;6.892;2023-06-14T08:06:31;4.97;;;4.88;;
52888;SDS011;41413;52.770;6.892;2023-06-14T08:08:59;3.50;;;3.40;;
52888;SDS011;41413;52.770;6.892;2023-06-14T08:11:26;4.43;;;4.32;;
52888;SDS011;41413;52.770;6.892;2023-06-14T08:13:53;4.07;;;3.97;;
52888;SDS011;41413;52.770;6.892;2023-06-14T08:16:20;4.35;;;4.25;;
52888;SDS011;41413;52.770;6.892;2023-06-14T08:18:47;3.22;;;3.13;;
52888;SDS011;41413;52.770;6.892;2023-06-14T08:21:13;3.90;;;3.80;;
52888;SDS011;41413;52.770;6.892;2023-06-14T08:23:41;3.83;;;3.72;;
52888;SDS011;41413;52.770;6.892;2023-06-14T08:26:09;4.13;;;4.03;;
52888;SDS011;41413;52.770;6.892;2023-06-14T08:28:36;3.25;;;3.15;;
52888;SDS011;41413;52.770;6.892;2023-06-14T08:31:03;3.50;;;3.40;;
52888;SDS011;41413;52.770;6.892;2023-06-14T08:33:29;2.45;;;2.40;;
52888;SDS011;41413;52.770;6.892;2023-06-14T08:36:00;1.83;;;1.83;;
52888;SDS011;41413;52.770;6.892;2023-06-14T08:38:26;2.10;;;2.10;;
52888;SDS011;41413;52.770;6.892;2023-06-14T08:40:54;1.27;;;1.27;;
52888;SDS011;41413;52.770;6.892;2023-06-14T08:43:23;1.73;;;1.73;;
52888;SDS011;41413;52.770;6.892;2023-06-14T08:45:52;1.70;;;1.70;;
52888;SDS011;41413;52.770;6.892;2023-06-14T08:48:24;1.52;;;1.52;;
52888;SDS011;41413;52.770;6.892;2023-06-14T08:50:54;1.15;;;1.15;;
52888;SDS011;41413;52.770;6.892;2023-06-14T08:53:28;1.67;;;1.67;;
52888;SDS011;41413;52.770;6.892;2023-06-14T08:56:01;1.45;;;1.45;;
52888;SDS011;41413;52.770;6.892;2023-06-14T08:58:31;1.92;;;1.92;;
52888;SDS011;41413;52.770;6.892;2023-06-14T09:01:03;1.70;;;1.70;;
52888;SDS011;41413;52.770;6.892;2023-06-14T09:03:31;1.70;;;1.70;;
52888;SDS011;41413;52.770;6.892;2023-06-14T09:05:59;1.80;;;1.80;;
52888;SDS011;41413;52.770;6.892;2023-06-14T09:08:27;1.73;;;1.73;;
52888;SDS011;41413;52.770;6.892;2023-06-14T09:10:57;1.73;;;1.73;;
52888;SDS011;41413;52.770;6.892;2023-06-14T09:13:24;1.90;;;1.90;;
52888;SDS011;41413;52.770;6.892;2023-06-14T09:15:57;1.48;;;1.48;;
52888;SDS011;41413;52.770;6.892;2023-06-14T09:18:33;1.67;;;1.67;;
52888;SDS011;41413;52.770;6.892;2023-06-14T09:21:01;1.88;;;1.88;;
52888;SDS011;41413;52.770;6.892;2023-06-14T09:23:28;2.00;;;2.00;;
52888;SDS011;41413;52.770;6.892;2023-06-14T09:25:55;1.73;;;1.73;;
52888;SDS011;41413;52.770;6.892;2023-06-14T09:28:26;2.08;;;2.08;;
52888;SDS011;41413;52.770;6.892;2023-06-14T09:30:54;2.08;;;2.08;;
52888;SDS011;41413;52.770;6.892;2023-06-14T09:33:21;1.52;;;1.52;;
52888;SDS011;41413;52.770;6.892;2023-06-14T09:35:51;2.10;;;2.10;;
52888;SDS011;41413;52.770;6.892;2023-06-14T09:38:18;1.77;;;1.77;;
52888;SDS011;41413;52.770;6.892;2023-06-14T09:40:45;1.30;;;1.30;;
52888;SDS011;41413;52.770;6.892;2023-06-14T09:43:12;1.83;;;1.83;;
52888;SDS011;41413;52.770;6.892;2023-06-14T09:45:39;1.73;;;1.73;;
52888;SDS011;41413;52.770;6.892;2023-06-14T09:48:07;1.85;;;1.85;;
52888;SDS011;41413;52.770;6.892;2023-06-14T09:50:36;1.70;;;1.70;;
52888;SDS011;41413;52.770;6.892;2023-06-14T09:53:06;1.42;;;1.42;;
52888;SDS011;41413;52.770;6.892;2023-06-14T09:55:34;1.67;;;1.67;;
52888;SDS011;41413;52.770;6.892;2023-06-14T09:58:06;1.75;;;1.75;;
52888;SDS011;41413;52.770;6.892;2023-06-14T10:00:34;1.73;;;1.73;;
52888;SDS011;41413;52.770;6.892;2023-06-14T10:03:05;1.48;;;1.48;;
52888;SDS011;41413;52.770;6.892;2023-06-14T10:05:37;1.42;;;1.42;;
52888;SDS011;41413;52.770;6.892;2023-06-14T10:08:08;1.45;;;1.45;;
52888;SDS011;41413;52.770;6.892;2023-06-14T10:10:38;1.52;;;1.52;;
52888;SDS011;41413;52.770;6.892;2023-06-14T10:13:06;1.63;;;1.63;;
52888;SDS011;41413;52.770;6.892;2023-06-14T10:15:54;1.77;;;1.77;;
52888;SDS011;41413;52.770;6.892;2023-06-14T10:21:28;1.23;;;1.23;;
52888;SDS011;41413;52.770;6.892;2023-06-14T10:24:04;1.35;;;1.35;;
52888;SDS011;41413;52.770;6.892;2023-06-14T10:26:39;1.42;;;1.42;;
52888;SDS011;41413;52.770;6.892;2023-06-14T10:29:17;1.92;;;1.92;;
52888;SDS011;41413;52.770;6.892;2023-06-14T10:31:48;1.63;;;1.63;;
52888;SDS011;41413;52.770;6.892;2023-06-14T10:34:29;1.70;;;1.70;;
52888;SDS011;41413;52.770;6.892;2023-06-14T10:37:04;1.92;;;1.92;;
52888;SDS011;41413;52.770;6.892;2023-06-14T10:39:39;1.55;;;1.55;;
52888;SDS011;41413;52.770;6.892;2023-06-14T10:42:07;1.40;;;1.40;;
52888;SDS011;41413;52.770;6.892;2023-06-14T10:47:25;1.10;;;1.10;;
52888;SDS011;41413;52.770;6.892;2023-06-14T10:52:28;1.88;;;1.88;;
52888;SDS011;41413;52.770;6.892;2023-06-14T10:57:36;1.85;;;1.85;;
52888;SDS011;41413;52.770;6.892;2023-06-14T11:00:18;1.65;;;1.65;;
52888;SDS011;41413;52.770;6.892;2023-06-14T11:05:24;1.30;;;1.30;;
52888;SDS011;41413;52.770;6.892;2023-06-14T11:10:41;1.70;;;1.70;;
52888;SDS011;41413;52.770;6.892;2023-06-14T11:13:09;1.73;;;1.73;;
52888;SDS011;41413;52.770;6.892;2023-06-14T11:15:36;1.80;;;1.80;;
52888;SDS011;41413;52.770;6.892;2023-06-14T11:18:05;1.48;;;1.48;;
52888;SDS011;41413;52.770;6.892;2023-06-14T11:20:34;1.50;;;1.50;;
52888;SDS011;41413;52.770;6.892;2023-06-14T11:23:02;1.92;;;1.92;;
52888;SDS011;41413;52.770;6.892;2023-06-14T11:25:30;1.85;;;1.85;;
52888;SDS011;41413;52.770;6.892;2023-06-14T11:27:57;1.58;;;1.58;;
52888;SDS011;41413;52.770;6.892;2023-06-14T11:30:25;1.55;;;1.55;;
52888;SDS011;41413;52.770;6.892;2023-06-14T11:32:53;1.75;;;1.75;;
52888;SDS011;41413;52.770;6.892;2023-06-14T11:35:24;1.67;;;1.67;;
52888;SDS011;41413;52.770;6.892;2023-06-14T11:37:55;1.52;;;1.52;;
52888;SDS011;41413;52.770;6.892;2023-06-14T11:40:23;1.58;;;1.58;;
52888;SDS011;41413;52.770;6.892;2023-06-14T11:42:57;1.85;;;1.85;;
52888;SDS011;41413;52.770;6.892;2023-06-14T11:45:26;1.48;;;1.48;;
52888;SDS011;41413;52.770;6.892;2023-06-14T11:47:56;1.55;;;1.55;;
52888;SDS011;41413;52.770;6.892;2023-06-14T11:50:27;1.38;;;1.38;;
52888;SDS011;41413;52.770;6.892;2023-06-14T11:52:58;2.00;;;2.00;;
52888;SDS011;41413;52.770;6.892;2023-06-14T11:55:29;1.85;;;1.85;;
52888;SDS011;41413;52.770;6.892;2023-06-14T11:57:56;1.65;;;1.65;;
52888;SDS011;41413;52.770;6.892;2023-06-14T12:00:26;1.60;;;1.60;;
52888;SDS011;41413;52.770;6.892;2023-06-14T12:02:54;1.48;;;1.48;;
52888;SDS011;41413;52.770;6.892;2023-06-14T12:05:24;1.60;;;1.60;;
52888;SDS011;41413;52.770;6.892;2023-06-14T12:07:59;1.52;;;1.52;;
52888;SDS011;41413;52.770;6.892;2023-06-14T12:10:27;1.50;;;1.50;;
52888;SDS011;41413;52.770;6.892;2023-06-14T12:12:58;1.83;;;1.83;;
52888;SDS011;41413;52.770;6.892;2023-06-14T12:15:29;1.40;;;1.40;;
52888;SDS011;41413;52.770;6.892;2023-06-14T12:17:57;1.77;;;1.77;;
52888;SDS011;41413;52.770;6.892;2023-06-14T12:20:28;1.55;;;1.55;;
52888;SDS011;41413;52.770;6.892;2023-06-14T12:22:57;1.83;;;1.83;;
52888;SDS011;41413;52.770;6.892;2023-06-14T12:25:27;1.20;;;1.20;;
52888;SDS011;41413;52.770;6.892;2023-06-14T12:27:57;1.20;;;1.20;;
52888;SDS011;41413;52.770;6.892;2023-06-14T12:30:24;1.65;;;1.65;;
52888;SDS011;41413;52.770;6.892;2023-06-14T12:32:52;1.77;;;1.77;;
52888;SDS011;41413;52.770;6.892;2023-06-14T12:35:18;1.75;;;1.75;;
52888;SDS011;41413;52.770;6.892;2023-06-14T12:37:45;1.05;;;1.05;;
52888;SDS011;41413;52.770;6.892;2023-06-14T12:40:12;1.30;;;1.30;;
52888;SDS011;41413;52.770;6.892;2023-06-14T12:42:40;1.83;;;1.83;;
52888;SDS011;41413;52.770;6.892;2023-06-14T12:45:08;1.30;;;1.30;;
52888;SDS011;41413;52.770;6.892;2023-06-14T12:47:36;1.27;;;1.27;;
52888;SDS011;41413;52.770;6.892;2023-06-14T12:50:03;1.77;;;1.77;;
52888;SDS011;41413;52.770;6.892;2023-06-14T12:52:31;1.38;;;1.38;;
52888;SDS011;41413;52.770;6.892;2023-06-14T12:54:57;2.00;;;2.00;;
52888;SDS011;41413;52.770;6.892;2023-06-14T12:57:24;1.70;;;1.70;;
52888;SDS011;41413;52.770;6.892;2023-06-14T12:59:51;1.65;;;1.65;;
52888;SDS011;41413;52.770;6.892;2023-06-14T13:02:20;1.40;;;1.40;;
52888;SDS011;41413;52.770;6.892;2023-06-14T13:04:51;1.73;;;1.73;;
52888;SDS011;41413;52.770;6.892;2023-06-14T13:07:18;1.38;;;1.38;;
52888;SDS011;41413;52.770;6.892;2023-06-14T13:09:45;1.77;;;1.77;;
52888;SDS011;41413;52.770;6.892;2023-06-14T13:12:11;1.27;;;1.27;;
52888;SDS011;41413;52.770;6.892;2023-06-14T13:14:39;1.88;;;1.88;;
52888;SDS011;41413;52.770;6.892;2023-06-14T13:17:10;1.50;;;1.50;;
52888;SDS011;41413;52.770;6.892;2023-06-14T13:19:37;1.83;;;1.83;;
52888;SDS011;41413;52.770;6.892;2023-06-14T13:22:04;1.70;;;1.70;;
52888;SDS011;41413;52.770;6.892;2023-06-14T13:24:31;1.33;;;1.33;;
52888;SDS011;41413;52.770;6.892;2023-06-14T13:26:58;1.85;;;1.85;;
52888;SDS011;41413;52.770;6.892;2023-06-14T13:29:25;1.33;;;1.33;;
52888;SDS011;41413;52.770;6.892;2023-06-14T13:31:52;1.77;;;1.77;;
52888;SDS011;41413;52.770;6.892;2023-06-14T13:34:20;1.42;;;1.42;;
52888;SDS011;41413;52.770;6.892;2023-06-14T13:36:47;1.70;;;1.70;;
52888;SDS011;41413;52.770;6.892;2023-06-14T13:39:15;1.75;;;1.75;;
52888;SDS011;41413;52.770;6.892;2023-06-14T13:41:42;1.63;;;1.63;;
52888;SDS011;41413;52.770;6.892;2023-06-14T13:44:09;1.58;;;1.58;;
52888;SDS011;41413;52.770;6.892;2023-06-14T13:46:42;1.50;;;1.50;;
52888;SDS011;41413;52.770;6.892;2023-06-14T13:49:09;1.85;;;1.85;;
52888;SDS011;41413;52.770;6.892;2023-06-14T13:51:36;1.80;;;1.80;;
52888;SDS011;41413;52.770;6.892;2023-06-14T13:54:03;2.03;;;2.03;;
52888;SDS011;41413;52.770;6.892;2023-06-14T13:56:30;2.08;;;2.08;;
52888;SDS011;41413;52.770;6.892;2023-06-14T13:58:57;1.92;;;1.92;;
52888;SDS011;41413;52.770;6.892;2023-06-14T14:01:24;1.27;;;1.27;;
52888;SDS011;41413;52.770;6.892;2023-06-14T14:03:52;1.50;;;1.50;;
52888;SDS011;41413;52.770;6.892;2023-06-14T14:06:19;1.40;;;1.40;;
52888;SDS011;41413;52.770;6.892;2023-06-14T14:08:46;1.42;;;1.42;;
52888;SDS011;41413;52.770;6.892;2023-06-14T14:11:13;1.33;;;1.33;;
52888;SDS011;41413;52.770;6.892;2023-06-14T14:13:41;2.10;;;2.10;;
52888;SDS011;41413;52.770;6.892;2023-06-14T14:16:08;1.92;;;1.92;;
52888;SDS011;41413;52.770;6.892;2023-06-14T14:18:36;1.80;;;1.80;;
52888;SDS011;41413;52.770;6.892;2023-06-14T14:21:04;1.50;;;1.50;;
52888;SDS011;41413;52.770;6.892;2023-06-14T14:23:31;1.75;;;1.75;;
52888;SDS011;41413;52.770;6.892;2023-06-14T14:25:58;1.48;;;1.48;;
52888;SDS011;41413;52.770;6.892;2023-06-14T14:28:27;1.55;;;1.55;;
52888;SDS011;41413;52.770;6.892;2023-06-14T14:30:53;1.65;;;1.65;;
52888;SDS011;41413;52.770;6.892;2023-06-14T14:33:21;1.77;;;1.77;;
52888;SDS011;41413;52.770;6.892;2023-06-14T14:35:48;2.17;;;2.17;;
52888;SDS011;41413;52.770;6.892;2023-06-14T14:38:14;2.00;;;2.00;;
52888;SDS011;41413;52.770;6.892;2023-06-14T14:40:44;1.52;;;1.52;;
52888;SDS011;41413;52.770;6.892;2023-06-14T14:43:11;1.70;;;1.70;;
52888;SDS011;41413;52.770;6.892;2023-06-14T14:45:38;1.58;;;1.58;;
52888;SDS011;41413;52.770;6.892;2023-06-14T14:48:05;1.95;;;1.95;;
52888;SDS011;41413;52.770;6.892;2023-06-14T14:50:32;1.45;;;1.45;;
52888;SDS011;41413;52.770;6.892;2023-06-14T14:52:59;1.85;;;1.85;;
52888;SDS011;41413;52.770;6.892;2023-06-14T14:55:26;1.77;;;1.77;;
52888;SDS011;41413;52.770;6.892;2023-06-14T14:57:53;1.42;;;1.42;;
52888;SDS011;41413;52.770;6.892;2023-06-14T15:00:20;1.67;;;1.67;;
52888;SDS011;41413;52.770;6.892;2023-06-14T15:02:47;1.58;;;1.58;;
52888;SDS011;41413;52.770;6.892;2023-06-14T15:05:13;1.20;;;1.20;;
52888;SDS011;41413;52.770;6.892;2023-06-14T15:07:40;1.65;;;1.65;;
52888;SDS011;41413;52.770;6.892;2023-06-14T15:10:07;1.92;;;1.92;;
52888;SDS011;41413;52.770;6.892;2023-06-14T15:12:35;1.38;;;1.38;;
52888;SDS011;41413;52.770;6.892;2023-06-14T15:15:02;1.67;;;1.67;;
52888;SDS011;41413;52.770;6.892;2023-06-14T15:17:29;1.65;;;1.65;;